createdAt,value
2023-05-06T00:01:24.585Z,5.43
2023-05-06T00:04:30.098Z,3.60
2023-05-06T00:07:38.206Z,3.40
2023-05-06T00:10:43.638Z,3.25
2023-05-06T00:13:49.334Z,6.88
2023-05-06T00:16:55.063Z,2.60
2023-05-06T00:20:00.197Z,2.22
2023-05-06T00:23:08.319Z,5.95
2023-05-06T00:26:13.727Z,4.63
2023-05-06T00:29:19.258Z,3.22
2023-05-06T00:32:25.594Z,3.08
2023-05-06T00:35:31.781Z,3.60
2023-05-06T00:38:40.124Z,2.83
2023-05-06T00:41:45.617Z,3.05
2023-05-06T00:44:51.258Z,5.20
2023-05-06T00:47:56.625Z,3.67
2023-05-06T00:51:02.645Z,2.85
2023-05-06T00:54:10.869Z,3.13
2023-05-06T00:57:16.182Z,3.63
2023-05-06T01:00:22.282Z,4.75
2023-05-06T01:03:27.804Z,3.95
2023-05-06T01:06:36.093Z,3.70
2023-05-06T01:09:46.097Z,2.60
2023-05-06T01:12:53.819Z,4.20
2023-05-06T01:16:01.599Z,2.78
2023-05-06T01:19:08.912Z,2.92
2023-05-06T01:22:14.725Z,3.08
2023-05-06T01:25:26.386Z,1.50
2023-05-06T01:28:33.136Z,4.78
2023-05-06T01:31:41.671Z,1.98
2023-05-06T01:34:48.680Z,2.63
2023-05-06T01:37:56.772Z,4.20
2023-05-06T01:41:05.227Z,2.30
2023-05-06T01:44:11.381Z,2.08
2023-05-06T01:47:17.187Z,4.63
2023-05-06T01:50:22.822Z,4.25
2023-05-06T01:53:28.418Z,2.08
2023-05-06T01:56:39.373Z,1.52
2023-05-06T01:59:44.820Z,4.25
2023-05-06T02:02:50.213Z,3.25
2023-05-06T02:05:56.176Z,2.60
2023-05-06T02:09:03.373Z,3.33
2023-05-06T02:12:14.182Z,3.15
2023-05-06T02:15:19.848Z,5.78
2023-05-06T02:18:25.828Z,3.47
2023-05-06T02:21:31.498Z,4.18
2023-05-06T02:24:37.228Z,3.33
2023-05-06T02:27:45.399Z,4.28
2023-05-06T02:30:50.998Z,3.00
2023-05-06T02:33:56.599Z,4.25
2023-05-06T02:37:01.837Z,2.50
2023-05-06T02:40:07.708Z,3.83
2023-05-06T02:43:15.944Z,4.60
2023-05-06T02:46:21.396Z,4.18
2023-05-06T02:49:26.784Z,3.58
2023-05-06T02:52:33.624Z,3.15
2023-05-06T02:55:39.527Z,4.18
2023-05-06T02:58:47.722Z,5.72
2023-05-06T03:01:53.377Z,4.90
2023-05-06T03:04:58.848Z,3.40
2023-05-06T03:08:03.967Z,3.55
2023-05-06T03:11:10.422Z,2.92
2023-05-06T03:14:18.888Z,3.10
2023-05-06T03:17:24.745Z,4.03
2023-05-06T03:20:31.017Z,4.38
2023-05-06T03:23:38.338Z,1.80
2023-05-06T03:26:43.837Z,2.17
2023-05-06T03:29:53.763Z,3.42
2023-05-06T03:33:01.223Z,2.28
2023-05-06T03:39:15.821Z,2.70
2023-05-06T03:42:23.272Z,2.63
2023-05-06T03:45:32.000Z,2.92
2023-05-06T03:48:40.729Z,2.55
2023-05-06T03:51:50.683Z,2.05
2023-05-06T03:54:57.099Z,1.20
2023-05-06T03:58:03.630Z,2.60
2023-05-06T04:01:11.541Z,4.97
2023-05-06T04:04:16.857Z,4.70
2023-05-06T04:07:22.552Z,3.20
2023-05-06T04:10:29.590Z,2.15
2023-05-06T04:13:41.279Z,2.47
2023-05-06T04:16:54.722Z,7.07
2023-05-06T04:20:01.546Z,4.30
2023-05-06T04:23:08.418Z,1.35
2023-05-06T04:26:14.010Z,1.77
2023-05-06T04:29:21.299Z,3.53
2023-05-06T04:32:47.176Z,2.33
2023-05-06T04:35:54.339Z,1.00
2023-05-06T04:39:00.181Z,3.45
2023-05-06T04:42:05.670Z,2.47
2023-05-06T04:45:18.452Z,1.45
2023-05-06T04:48:29.664Z,3.72
2023-05-06T04:51:37.429Z,1.48
2023-05-06T04:54:45.335Z,1.52
2023-05-06T04:57:51.674Z,2.53
2023-05-06T05:00:57.838Z,1.60
2023-05-06T05:04:06.097Z,0.98
2023-05-06T05:07:12.084Z,1.42
2023-05-06T05:10:17.636Z,1.98
2023-05-06T05:13:25.239Z,0.90
2023-05-06T05:16:33.136Z,0.90
2023-05-06T05:19:43.277Z,3.50
2023-05-06T05:22:50.317Z,3.10
2023-05-06T05:25:56.338Z,1.80
2023-05-06T05:29:02.585Z,2.58
2023-05-06T05:32:09.996Z,1.83
2023-05-06T05:35:18.230Z,2.20
2023-05-06T05:38:25.212Z,3.90
2023-05-06T05:41:31.822Z,4.90
2023-05-06T05:44:37.879Z,0.90
2023-05-06T05:47:44.501Z,2.08
2023-05-06T05:50:53.431Z,1.52
2023-05-06T05:54:02.001Z,2.92
2023-05-06T05:57:07.788Z,5.57
2023-05-06T06:00:13.888Z,1.23
2023-05-06T06:03:23.310Z,1.63
2023-05-06T06:06:31.796Z,1.55
2023-05-06T06:09:37.762Z,1.55
2023-05-06T06:12:44.898Z,2.25
2023-05-06T06:15:53.971Z,2.28
2023-05-06T06:18:59.534Z,2.75
2023-05-06T06:22:10.030Z,1.13
2023-05-06T06:25:15.561Z,1.65
2023-05-06T06:28:21.198Z,1.83
2023-05-06T06:31:26.642Z,2.15
2023-05-06T06:34:32.122Z,4.93
2023-05-06T06:37:40.398Z,2.83
2023-05-06T06:40:45.609Z,2.67
2023-05-06T06:43:50.992Z,8.38
2023-05-06T06:46:57.591Z,3.97
2023-05-06T06:50:03.286Z,2.00
2023-05-06T06:53:11.503Z,5.55
2023-05-06T06:56:17.445Z,2.28
2023-05-06T06:59:23.171Z,6.53
2023-05-06T07:02:28.586Z,1.95
2023-05-06T07:05:34.052Z,5.25
2023-05-06T07:08:42.340Z,8.55
2023-05-06T07:11:47.605Z,0.85
2023-05-06T07:14:53.132Z,2.35
2023-05-06T07:17:58.506Z,1.42
2023-05-06T07:21:04.314Z,3.38
2023-05-06T07:24:12.512Z,1.70
2023-05-06T07:27:18.530Z,1.88
2023-05-06T07:30:23.894Z,1.45
2023-05-06T07:33:29.370Z,2.90
2023-05-06T07:36:40.858Z,1.42
2023-05-06T07:39:49.908Z,7.32
2023-05-06T07:42:56.002Z,4.22
2023-05-06T07:46:03.257Z,2.38
2023-05-06T07:49:08.724Z,0.93
2023-05-06T07:52:14.291Z,1.60
2023-05-06T07:55:22.272Z,1.10
2023-05-06T07:58:27.933Z,1.27
2023-05-06T08:01:33.667Z,3.03
2023-05-06T08:04:39.136Z,1.25
2023-05-06T08:07:44.604Z,3.25
2023-05-06T08:10:52.584Z,1.55
2023-05-06T08:13:58.015Z,1.48
2023-05-06T08:17:03.400Z,5.07
2023-05-06T08:20:09.538Z,3.72
2023-05-06T08:23:15.126Z,3.83
2023-05-06T08:26:23.354Z,3.63
2023-05-06T08:29:28.613Z,6.75
2023-05-06T08:32:33.871Z,2.28
2023-05-06T08:35:39.189Z,3.25
2023-05-06T08:38:49.537Z,1.38
2023-05-06T08:41:58.928Z,2.53
2023-05-06T08:45:04.945Z,1.33
2023-05-06T08:48:10.172Z,1.40
2023-05-06T08:51:16.883Z,11.20
2023-05-06T08:54:22.327Z,1.45
2023-05-06T08:57:32.585Z,2.53
2023-05-06T09:00:38.721Z,2.97
2023-05-06T09:03:44.533Z,2.60
2023-05-06T09:06:50.179Z,1.67
2023-05-06T09:09:55.742Z,1.85
2023-05-06T09:13:03.876Z,1.60
2023-05-06T09:16:09.960Z,2.00
2023-05-06T09:19:15.475Z,3.30
2023-05-06T09:22:21.177Z,1.88
2023-05-06T09:25:26.720Z,3.13
2023-05-06T09:28:36.022Z,1.17
2023-05-06T09:31:43.885Z,3.33
2023-05-06T09:34:52.212Z,3.17
2023-05-06T09:37:57.446Z,4.45
2023-05-06T09:41:02.880Z,2.40
2023-05-06T09:44:10.800Z,2.60
2023-05-06T09:47:17.897Z,2.65
2023-05-06T09:50:24.464Z,4.03
2023-05-06T09:53:30.830Z,3.95
2023-05-06T09:56:36.175Z,5.43
2023-05-06T09:59:45.042Z,4.45
2023-05-06T10:02:50.931Z,2.78
2023-05-06T10:05:57.608Z,2.40
2023-05-06T10:09:03.237Z,2.00
2023-05-06T10:12:09.825Z,2.38
2023-05-06T10:15:17.847Z,1.77
2023-05-06T10:18:23.971Z,1.20
2023-05-06T10:21:32.658Z,7.32
2023-05-06T10:27:44.283Z,5.13
2023-05-06T10:30:53.220Z,3.95
2023-05-06T10:33:59.778Z,4.20
2023-05-06T10:37:05.973Z,1.90
2023-05-06T10:40:12.697Z,4.70
2023-05-06T10:43:25.347Z,2.22
2023-05-06T10:46:33.779Z,5.10
2023-05-06T10:49:40.030Z,2.47
2023-05-06T10:52:48.971Z,2.97
2023-05-06T10:56:10.167Z,2.83
2023-05-06T10:59:16.091Z,2.28
2023-05-06T11:02:24.441Z,1.48
2023-05-06T11:05:30.292Z,3.30
2023-05-06T11:08:35.618Z,1.58
2023-05-06T11:11:51.567Z,2.58
2023-05-06T11:14:56.882Z,2.88
2023-05-06T11:18:25.121Z,5.90
2023-05-06T11:21:41.890Z,4.80
2023-05-06T11:24:47.382Z,3.33
2023-05-06T11:27:52.816Z,4.20
2023-05-06T11:30:58.603Z,2.08
2023-05-06T11:34:10.370Z,2.78
2023-05-06T11:37:15.936Z,1.20
2023-05-06T11:40:21.481Z,4.63
2023-05-06T11:43:27.235Z,5.45
2023-05-06T11:46:36.994Z,1.90
2023-05-06T11:49:45.385Z,1.85
2023-05-06T11:52:50.963Z,1.50
2023-05-06T11:55:56.854Z,1.80
2023-05-06T11:59:02.320Z,5.13
2023-05-06T12:02:08.305Z,3.92
2023-05-06T12:05:16.285Z,4.28
2023-05-06T12:08:28.066Z,3.92
2023-05-06T12:11:33.757Z,4.40
2023-05-06T12:14:39.671Z,5.10
2023-05-06T12:17:47.741Z,1.67
2023-05-06T12:20:56.429Z,2.65
2023-05-06T12:24:02.934Z,1.35
2023-05-06T12:27:08.610Z,4.63
2023-05-06T12:33:22.272Z,3.20
2023-05-06T12:36:30.566Z,3.42
2023-05-06T12:39:39.402Z,4.57
2023-05-06T12:42:44.888Z,2.80
2023-05-06T12:46:05.459Z,4.43
2023-05-06T12:49:10.966Z,1.40
2023-05-06T12:52:19.357Z,3.80
2023-05-06T12:55:26.091Z,3.65
2023-05-06T12:58:37.709Z,5.90
2023-05-06T13:01:43.261Z,11.70
2023-05-06T13:04:48.673Z,2.95
2023-05-06T13:07:56.635Z,3.58
2023-05-06T13:11:02.934Z,2.45
2023-05-06T13:14:08.262Z,5.90
2023-05-06T13:17:15.258Z,3.30
2023-05-06T13:20:21.049Z,3.70
2023-05-06T13:23:29.178Z,1.73
2023-05-06T13:26:34.608Z,4.45
2023-05-06T13:29:39.951Z,8.05
2023-05-06T13:32:45.269Z,4.53
2023-05-06T13:35:50.953Z,3.00
2023-05-06T13:38:58.914Z,6.45
2023-05-06T13:42:06.812Z,6.05
2023-05-06T13:45:14.061Z,13.98
2023-05-06T13:48:20.362Z,2.33
2023-05-06T13:51:29.572Z,3.13
2023-05-06T13:54:38.107Z,1.35
2023-05-06T13:57:43.540Z,4.00
2023-05-06T14:00:49.170Z,3.75
2023-05-06T14:03:54.693Z,2.50
2023-05-06T14:07:00.183Z,1.90
2023-05-06T14:10:08.822Z,4.60
2023-05-06T14:16:19.604Z,2.67
2023-05-06T14:19:25.750Z,1.80
2023-05-06T14:22:31.007Z,2.50
2023-05-06T14:25:39.784Z,3.72
2023-05-06T14:28:45.397Z,3.70
2023-05-06T14:31:51.090Z,3.63
2023-05-06T14:34:56.600Z,4.60
2023-05-06T14:38:02.175Z,3.25
2023-05-06T14:41:10.712Z,2.85
2023-05-06T14:47:21.419Z,2.10
2023-05-06T14:50:27.046Z,4.72
2023-05-06T14:53:32.729Z,5.05
2023-05-06T14:56:40.478Z,4.35
2023-05-06T14:59:46.710Z,3.57
2023-05-06T15:02:51.998Z,5.30
2023-05-06T15:05:57.662Z,4.32
2023-05-06T15:09:02.996Z,5.10
2023-05-06T15:12:11.551Z,2.38
2023-05-06T15:18:21.958Z,1.83
2023-05-06T15:21:27.867Z,1.17
2023-05-06T15:24:33.691Z,4.60
2023-05-06T15:27:41.654Z,1.67
2023-05-06T15:30:47.215Z,5.85
2023-05-06T15:33:52.950Z,7.78
2023-05-06T15:37:01.417Z,2.58
2023-05-06T15:43:22.737Z,2.58
2023-05-06T15:46:29.166Z,2.47
2023-05-06T15:49:51.428Z,6.25
2023-05-06T15:53:00.431Z,2.05
2023-05-06T15:56:13.711Z,5.20
2023-05-06T15:59:27.271Z,3.80
2023-05-06T16:02:33.099Z,1.67
2023-05-06T16:05:38.581Z,4.43
2023-05-06T16:08:46.785Z,4.72
2023-05-06T16:11:52.051Z,4.25
2023-05-06T16:15:00.268Z,2.60
2023-05-06T16:21:11.153Z,7.15
2023-05-06T16:24:16.841Z,3.13
2023-05-06T16:27:22.407Z,2.45
2023-05-06T16:30:30.400Z,12.32
2023-05-06T16:33:36.011Z,4.70
2023-05-06T16:36:41.299Z,2.70
2023-05-06T16:39:47.278Z,4.80
2023-05-06T16:42:52.815Z,4.53
2023-05-06T16:46:01.037Z,3.50
2023-05-06T16:49:06.671Z,3.05
2023-05-06T16:52:12.169Z,5.30
2023-05-06T16:55:17.786Z,4.88
2023-05-06T16:58:23.547Z,4.40
2023-05-06T17:01:32.288Z,4.57
2023-05-06T17:04:37.935Z,5.30
2023-05-06T17:07:43.823Z,3.80
2023-05-06T17:10:49.164Z,5.80
2023-05-06T17:13:54.288Z,9.05
2023-05-06T17:17:04.419Z,5.35
2023-05-06T17:20:11.079Z,2.67
2023-05-06T17:23:16.756Z,7.15
2023-05-06T17:26:22.487Z,4.55
2023-05-06T17:29:27.841Z,5.72
2023-05-06T17:32:36.239Z,5.90
2023-05-06T17:35:41.562Z,15.77
2023-05-06T17:38:46.999Z,3.90
2023-05-06T17:41:52.354Z,5.18
2023-05-06T17:44:58.165Z,6.00
2023-05-06T17:48:06.294Z,5.00
2023-05-06T17:51:11.807Z,6.97
2023-05-06T17:54:17.217Z,9.32
2023-05-06T17:57:22.712Z,13.27
2023-05-06T18:00:28.315Z,6.30
2023-05-06T18:03:36.730Z,4.72
2023-05-06T18:06:43.396Z,9.63
2023-05-06T18:09:52.360Z,9.57
2023-05-06T18:12:58.035Z,5.40
2023-05-06T18:16:03.860Z,8.98
2023-05-06T18:19:11.844Z,6.68
2023-05-06T18:22:17.626Z,5.93
2023-05-06T18:25:23.371Z,4.88
2023-05-06T18:28:28.777Z,4.00
2023-05-06T18:31:34.443Z,4.05
2023-05-06T18:34:42.313Z,4.22
2023-05-06T18:37:47.796Z,4.88
2023-05-06T18:40:53.269Z,3.72
2023-05-06T18:43:58.799Z,5.80
2023-05-06T18:47:04.304Z,4.80
2023-05-06T18:50:13.043Z,4.47
2023-05-06T18:53:18.482Z,7.88
2023-05-06T18:56:24.668Z,5.47
2023-05-06T18:59:29.953Z,7.07
2023-05-06T19:02:35.431Z,4.85
2023-05-06T19:05:43.526Z,6.35
2023-05-06T19:08:48.855Z,7.32
2023-05-06T19:11:54.411Z,5.95
2023-05-06T19:15:00.401Z,6.30
2023-05-06T19:18:07.675Z,6.28
2023-05-06T19:21:15.973Z,6.93
2023-05-06T19:24:21.597Z,7.30
2023-05-06T19:27:27.373Z,6.13
2023-05-06T19:30:33.980Z,8.98
2023-05-06T19:33:39.849Z,7.00
2023-05-06T19:36:47.775Z,9.52
2023-05-06T19:39:52.971Z,9.32
2023-05-06T19:43:03.979Z,14.23
2023-05-06T19:46:09.644Z,6.68
2023-05-06T19:49:15.184Z,11.02
2023-05-06T19:52:25.532Z,9.77
2023-05-06T19:55:31.204Z,5.85
2023-05-06T19:58:36.804Z,7.60
2023-05-06T20:01:42.517Z,9.98
2023-05-06T20:04:47.923Z,8.10
2023-05-06T20:07:56.098Z,9.45
2023-05-06T20:11:01.414Z,9.10
2023-05-06T20:14:07.863Z,6.47
2023-05-06T20:17:13.213Z,5.80
2023-05-06T20:20:19.652Z,7.45
2023-05-06T20:23:27.720Z,7.05
2023-05-06T20:26:33.084Z,7.35
2023-05-06T20:29:38.808Z,7.43
2023-05-06T20:32:44.162Z,5.97
2023-05-06T20:35:51.204Z,6.85
2023-05-06T20:39:00.876Z,6.80
2023-05-06T20:42:06.728Z,7.32
2023-05-06T20:45:13.023Z,6.07
2023-05-06T20:48:18.545Z,8.18
2023-05-06T20:51:24.137Z,9.75
2023-05-06T20:54:31.936Z,7.53
2023-05-06T20:57:37.167Z,7.53
2023-05-06T21:00:42.483Z,6.97
2023-05-06T21:03:48.840Z,6.70
2023-05-06T21:06:54.348Z,10.00
2023-05-06T21:10:02.372Z,9.98
2023-05-06T21:13:12.079Z,9.13
2023-05-06T21:16:17.562Z,8.07
2023-05-06T21:19:22.933Z,9.00
2023-05-06T21:22:28.543Z,10.65
2023-05-06T21:25:36.603Z,8.50
2023-05-06T21:28:42.008Z,10.43
2023-05-06T21:31:47.426Z,8.77
2023-05-06T21:34:52.810Z,8.38
2023-05-06T21:37:57.965Z,9.77
2023-05-06T21:41:06.380Z,8.00
2023-05-06T21:44:12.190Z,8.93
2023-05-06T21:47:17.966Z,8.90
2023-05-06T21:50:23.181Z,8.60
2023-05-06T21:53:28.720Z,9.68
2023-05-06T21:56:36.808Z,6.90
2023-05-06T21:59:42.390Z,8.60
2023-05-06T22:02:47.958Z,8.32
2023-05-06T22:05:53.470Z,10.93
2023-05-06T22:08:58.685Z,9.23
2023-05-06T22:12:09.173Z,7.43
2023-05-06T22:15:15.139Z,7.95
2023-05-06T22:18:20.678Z,9.63
2023-05-06T22:21:27.106Z,12.10
2023-05-06T22:24:32.669Z,9.35
2023-05-06T22:27:40.796Z,7.97
2023-05-06T22:30:46.083Z,8.73
2023-05-06T22:33:54.751Z,14.63
2023-05-06T22:40:07.552Z,9.65
2023-05-06T22:43:15.530Z,10.18
2023-05-06T22:46:21.072Z,8.80
2023-05-06T22:49:29.152Z,8.13
2023-05-06T22:52:34.848Z,8.00
2023-05-06T22:55:41.071Z,7.60
2023-05-06T22:58:49.457Z,7.35
2023-05-06T23:01:54.762Z,9.90
2023-05-06T23:05:00.156Z,10.98
2023-05-06T23:08:05.815Z,10.43
2023-05-06T23:11:11.434Z,9.02
2023-05-06T23:14:20.237Z,8.10
2023-05-06T23:17:25.938Z,7.70
2023-05-06T23:20:31.307Z,9.57
2023-05-06T23:23:36.712Z,10.75
2023-05-06T23:26:42.071Z,8.63
2023-05-06T23:29:50.200Z,11.60
2023-05-06T23:32:55.689Z,8.75
2023-05-06T23:36:02.863Z,9.77
2023-05-06T23:39:11.785Z,6.90
2023-05-06T23:42:17.297Z,10.43
2023-05-06T23:45:26.234Z,9.00
2023-05-06T23:48:32.017Z,9.05
2023-05-06T23:51:37.739Z,7.65
2023-05-06T23:54:43.209Z,8.32
2023-05-06T23:57:48.632Z,9.15
